sensor_id;sensor_type;location;lat;lon;timestamp;pressure;altitude;pressure_sealevel;temperature;humidity
53671;BME280;39571;48.612;8.088;2022-10-17T00:01:18;100258.84;;;21.64;63.88
53671;BME280;39571;48.612;8.088;2022-10-17T00:03:44;100256.25;;;21.62;63.87
53671;BME280;39571;48.612;8.088;2022-10-17T00:06:12;100251.00;;;21.61;63.88
53671;BME280;39571;48.612;8.088;2022-10-17T00:08:38;100247.53;;;21.59;63.66
53671;BME280;39571;48.612;8.088;2022-10-17T00:11:13;100256.41;;;21.59;63.80
53671;BME280;39571;48.612;8.088;2022-10-17T00:13:39;100255.63;;;21.57;63.85
53671;BME280;39571;48.612;8.088;2022-10-17T00:16:04;100253.56;;;21.62;63.51
53671;BME280;39571;48.612;8.088;2022-10-17T00:18:31;100252.00;;;21.58;63.58
53671;BME280;39571;48.612;8.088;2022-10-17T00:20:56;100257.50;;;21.55;63.44
53671;BME280;39571;48.612;8.088;2022-10-17T00:23:21;100254.81;;;21.55;63.37
53671;BME280;39571;48.612;8.088;2022-10-17T00:25:56;100261.13;;;21.54;63.53
53671;BME280;39571;48.612;8.088;2022-10-17T00:28:22;100261.88;;;21.56;63.23
53671;BME280;39571;48.612;8.088;2022-10-17T00:30:54;100269.72;;;21.59;63.50
53671;BME280;39571;48.612;8.088;2022-10-17T00:33:19;100265.25;;;21.60;63.23
53671;BME280;39571;48.612;8.088;2022-10-17T00:35:45;100275.75;;;21.63;63.17
53671;BME280;39571;48.612;8.088;2022-10-17T00:38:10;100286.25;;;21.66;63.25
53671;BME280;39571;48.612;8.088;2022-10-17T00:40:35;100289.00;;;21.64;63.43
53671;BME280;39571;48.612;8.088;2022-10-17T00:43:01;100296.19;;;21.62;63.44
53671;BME280;39571;48.612;8.088;2022-10-17T00:45:29;100299.94;;;21.58;63.56
53671;BME280;39571;48.612;8.088;2022-10-17T00:47:59;100298.09;;;21.60;63.45
53671;BME280;39571;48.612;8.088;2022-10-17T00:50:28;100303.56;;;21.57;63.37
53671;BME280;39571;48.612;8.088;2022-10-17T00:52:55;100297.28;;;21.58;63.32
53671;BME280;39571;48.612;8.088;2022-10-17T00:55:30;100294.63;;;21.58;63.58
53671;BME280;39571;48.612;8.088;2022-10-17T00:57:59;100296.34;;;21.59;63.29
53671;BME280;39571;48.612;8.088;2022-10-17T01:00:26;100298.25;;;21.57;63.50
53671;BME280;39571;48.612;8.088;2022-10-17T01:02:52;100300.97;;;21.56;63.41
53671;BME280;39571;48.612;8.088;2022-10-17T01:05:18;100302.00;;;21.53;63.53
53671;BME280;39571;48.612;8.088;2022-10-17T01:07:44;100304.56;;;21.55;63.57
53671;BME280;39571;48.612;8.088;2022-10-17T01:10:11;100303.72;;;21.54;63.31
53671;BME280;39571;48.612;8.088;2022-10-17T01:23:46;100311.22;;;21.46;63.66
53671;BME280;39571;48.612;8.088;2022-10-17T01:26:38;100312.97;;;21.47;63.66
53671;BME280;39571;48.612;8.088;2022-10-17T01:32:33;100295.41;;;21.43;63.54
53671;BME280;39571;48.612;8.088;2022-10-17T01:38:00;100297.41;;;21.38;63.60
53671;BME280;39571;48.612;8.088;2022-10-17T01:40:37;100295.72;;;21.37;63.68
53671;BME280;39571;48.612;8.088;2022-10-17T01:43:11;100288.50;;;21.39;63.58
53671;BME280;39571;48.612;8.088;2022-10-17T01:48:11;100277.06;;;21.37;63.27
53671;BME280;39571;48.612;8.088;2022-10-17T01:50:44;100281.44;;;21.38;63.39
53671;BME280;39571;48.612;8.088;2022-10-17T01:53:18;100281.44;;;21.38;63.39
53671;BME280;39571;48.612;8.088;2022-10-17T01:55:45;100285.19;;;21.34;63.62
53671;BME280;39571;48.612;8.088;2022-10-17T01:58:29;100287.84;;;21.34;63.75
53671;BME280;39571;48.612;8.088;2022-10-17T02:01:00;100284.34;;;21.34;63.53
53671;BME280;39571;48.612;8.088;2022-10-17T02:03:27;100290.38;;;21.37;63.48
53671;BME280;39571;48.612;8.088;2022-10-17T02:05:55;100286.91;;;21.35;63.57
53671;BME280;39571;48.612;8.088;2022-10-17T02:08:28;100293.13;;;21.36;63.61
53671;BME280;39571;48.612;8.088;2022-10-17T02:11:01;100281.75;;;21.32;63.51
53671;BME280;39571;48.612;8.088;2022-10-17T02:13:47;100289.53;;;21.37;63.40
53671;BME280;39571;48.612;8.088;2022-10-17T02:19:23;100291.31;;;21.36;63.45
53671;BME280;39571;48.612;8.088;2022-10-17T02:24:57;100281.75;;;21.32;63.51
53671;BME280;39571;48.612;8.088;2022-10-17T02:28:03;100287.94;;;21.33;63.61
53671;BME280;39571;48.612;8.088;2022-10-17T02:33:26;100287.06;;;21.32;63.43
53671;BME280;39571;48.612;8.088;2022-10-17T02:35:56;100287.84;;;21.34;63.33
53671;BME280;39571;48.612;8.088;2022-10-17T02:38:25;100287.72;;;21.37;63.19
53671;BME280;39571;48.612;8.088;2022-10-17T02:40:53;100296.69;;;21.35;63.46
53671;BME280;39571;48.612;8.088;2022-10-17T02:43:20;100296.00;;;21.31;63.28
53671;BME280;39571;48.612;8.088;2022-10-17T02:45:46;100301.31;;;21.31;63.23
53671;BME280;39571;48.612;8.088;2022-10-17T02:48:25;100307.50;;;21.32;63.22
53671;BME280;39571;48.612;8.088;2022-10-17T02:56:24;100308.53;;;21.29;63.24
53671;BME280;39571;48.612;8.088;2022-10-17T02:58:55;100301.63;;;21.25;63.37
53671;BME280;39571;48.612;8.088;2022-10-17T03:01:22;100306.72;;;21.30;63.42
53671;BME280;39571;48.612;8.088;2022-10-17T03:03:48;100308.53;;;21.29;63.23
53671;BME280;39571;48.612;8.088;2022-10-17T03:06:13;100310.25;;;21.30;63.44
53671;BME280;39571;48.612;8.088;2022-10-17T03:08:39;100301.63;;;21.25;63.36
53671;BME280;39571;48.612;8.088;2022-10-17T03:11:04;100299.75;;;21.27;63.49
53671;BME280;39571;48.612;8.088;2022-10-17T03:13:29;100295.38;;;21.26;63.36
53671;BME280;39571;48.612;8.088;2022-10-17T03:15:55;100290.97;;;21.25;63.37
53671;BME280;39571;48.612;8.088;2022-10-17T03:18:21;100292.72;;;21.26;63.40
53671;BME280;39571;48.612;8.088;2022-10-17T03:20:46;100282.34;;;21.20;63.61
53671;BME280;39571;48.612;8.088;2022-10-17T03:23:12;100283.34;;;21.17;63.63
53671;BME280;39571;48.612;8.088;2022-10-17T03:25:38;100288.69;;;21.17;63.35
53671;BME280;39571;48.612;8.088;2022-10-17T03:28:03;100293.84;;;21.21;63.34
53671;BME280;39571;48.612;8.088;2022-10-17T03:30:30;100293.00;;;21.20;63.52
53671;BME280;39571;48.612;8.088;2022-10-17T03:32:58;100297.22;;;21.24;63.19
53671;BME280;39571;48.612;8.088;2022-10-17T03:35:25;100304.88;;;21.13;63.46
53671;BME280;39571;48.612;8.088;2022-10-17T03:37:50;100308.31;;;21.15;63.49
53671;BME280;39571;48.612;8.088;2022-10-17T03:40:16;100308.03;;;21.21;63.75
53671;BME280;39571;48.612;8.088;2022-10-17T03:42:41;100307.50;;;21.32;64.37
53671;BME280;39571;48.612;8.088;2022-10-17T03:45:07;100312.69;;;21.35;64.27
53671;BME280;39571;48.612;8.088;2022-10-17T03:47:33;100314.63;;;21.31;65.05
53671;BME280;39571;48.612;8.088;2022-10-17T03:49:58;100315.44;;;21.33;64.81
53671;BME280;39571;48.612;8.088;2022-10-17T03:52:23;100314.47;;;21.34;65.94
53671;BME280;39571;48.612;8.088;2022-10-17T03:54:49;100315.44;;;21.33;66.19
53671;BME280;39571;48.612;8.088;2022-10-17T03:57:16;100325.63;;;21.42;65.45
53671;BME280;39571;48.612;8.088;2022-10-17T03:59:41;100329.09;;;21.44;65.63
53671;BME280;39571;48.612;8.088;2022-10-17T04:02:07;100333.03;;;21.54;65.51
53671;BME280;39571;48.612;8.088;2022-10-17T04:04:32;100328.63;;;21.53;65.57
53671;BME280;39571;48.612;8.088;2022-10-17T04:06:57;100332.94;;;21.56;65.57
53671;BME280;39571;48.612;8.088;2022-10-17T04:09:23;100342.72;;;21.55;65.75
53671;BME280;39571;48.612;8.088;2022-10-17T04:11:48;100341.75;;;21.58;65.88
53671;BME280;39571;48.612;8.088;2022-10-17T04:14:13;100337.72;;;21.49;65.82
53671;BME280;39571;48.612;8.088;2022-10-17T04:16:39;100344.41;;;21.39;64.99
53671;BME280;39571;48.612;8.088;2022-10-17T04:19:04;100350.81;;;21.35;63.88
53671;BME280;39571;48.612;8.088;2022-10-17T04:21:29;100355.84;;;21.41;63.21
53671;BME280;39571;48.612;8.088;2022-10-17T04:23:56;100361.41;;;21.37;62.71
53671;BME280;39571;48.612;8.088;2022-10-17T04:26:22;100362.75;;;21.45;61.99
53671;BME280;39571;48.612;8.088;2022-10-17T04:28:48;100367.31;;;21.43;61.61
53671;BME280;39571;48.612;8.088;2022-10-17T04:31:41;100364.22;;;21.15;60.81
53671;BME280;39571;48.612;8.088;2022-10-17T04:34:07;100363.97;;;21.01;60.14
53671;BME280;39571;48.612;8.088;2022-10-17T04:36:32;100372.09;;;20.98;60.13
53671;BME280;39571;48.612;8.088;2022-10-17T04:38:59;100378.44;;;20.95;60.20
53671;BME280;39571;48.612;8.088;2022-10-17T04:41:26;100384.88;;;20.90;60.18
53671;BME280;39571;48.612;8.088;2022-10-17T04:43:52;100381.31;;;20.91;59.87
53671;BME280;39571;48.612;8.088;2022-10-17T04:46:17;100390.50;;;20.84;60.11
53671;BME280;39571;48.612;8.088;2022-10-17T04:48:42;100392.09;;;20.88;60.09
53671;BME280;39571;48.612;8.088;2022-10-17T04:51:12;100388.91;;;20.80;60.37
53671;BME280;39571;48.612;8.088;2022-10-17T04:53:38;100383.59;;;20.80;60.50
53671;BME280;39571;48.612;8.088;2022-10-17T04:56:15;100376.66;;;20.76;60.78
53671;BME280;39571;48.612;8.088;2022-10-17T04:58:41;100369.63;;;20.75;60.70
53671;BME280;39571;48.612;8.088;2022-10-17T05:01:09;100368.69;;;20.76;60.63
53671;BME280;39571;48.612;8.088;2022-10-17T05:03:36;100366.16;;;20.73;60.95
53671;BME280;39571;48.612;8.088;2022-10-17T05:06:03;100361.84;;;20.70;61.02
53671;BME280;39571;48.612;8.088;2022-10-17T05:08:29;100365.19;;;20.75;60.93
53671;BME280;39571;48.612;8.088;2022-10-17T05:10:54;100366.97;;;20.75;61.14
53671;BME280;39571;48.612;8.088;2022-10-17T05:13:19;100367.13;;;20.72;61.36
53671;BME280;39571;48.612;8.088;2022-10-17T05:15:45;100376.03;;;20.71;61.30
53671;BME280;39571;48.612;8.088;2022-10-17T05:18:10;100367.19;;;20.70;61.46
53671;BME280;39571;48.612;8.088;2022-10-17T05:20:35;100359.28;;;20.69;61.19
53671;BME280;39571;48.612;8.088;2022-10-17T05:23:01;100364.59;;;20.69;61.43
53671;BME280;39571;48.612;8.088;2022-10-17T05:25:27;100364.59;;;20.69;61.56
53671;BME280;39571;48.612;8.088;2022-10-17T05:27:52;100368.09;;;20.69;61.41
53671;BME280;39571;48.612;8.088;2022-10-17T05:30:18;100375.25;;;20.69;61.68
53671;BME280;39571;48.612;8.088;2022-10-17T05:32:43;100369.13;;;20.66;61.45
53671;BME280;39571;48.612;8.088;2022-10-17T05:35:08;100375.09;;;20.72;61.44
53671;BME280;39571;48.612;8.088;2022-10-17T05:37:34;100377.81;;;20.70;61.56
53671;BME280;39571;48.612;8.088;2022-10-17T05:39:59;100368.81;;;20.73;61.49
53671;BME280;39571;48.612;8.088;2022-10-17T05:42:24;100378.69;;;20.71;61.51
53671;BME280;39571;48.612;8.088;2022-10-17T05:44:50;100374.97;;;20.75;61.27
53671;BME280;39571;48.612;8.088;2022-10-17T05:47:15;100381.22;;;20.74;61.43
53671;BME280;39571;48.612;8.088;2022-10-17T05:49:41;100371.34;;;20.76;61.20
53671;BME280;39571;48.612;8.088;2022-10-17T05:52:06;100364.47;;;20.72;61.52
53671;BME280;39571;48.612;8.088;2022-10-17T05:54:32;100373.22;;;20.74;61.39
53671;BME280;39571;48.612;8.088;2022-10-17T05:56:57;100378.53;;;20.74;61.65
53671;BME280;39571;48.612;8.088;2022-10-17T05:59:26;100381.16;;;20.75;61.52
53671;BME280;39571;48.612;8.088;2022-10-17T06:01:53;100387.31;;;20.76;61.49
53671;BME280;39571;48.612;8.088;2022-10-17T06:04:18;100399.53;;;20.80;61.48
53671;BME280;39571;48.612;8.088;2022-10-17T06:06:44;100405.00;;;20.77;61.50
53671;BME280;39571;48.612;8.088;2022-10-17T06:09:10;100407.81;;;20.74;61.71
53671;BME280;39571;48.612;8.088;2022-10-17T06:11:35;100410.47;;;20.74;61.30
53671;BME280;39571;48.612;8.088;2022-10-17T06:14:01;100404.38;;;20.72;61.54
53671;BME280;39571;48.612;8.088;2022-10-17T06:16:26;100410.53;;;20.72;61.67
53671;BME280;39571;48.612;8.088;2022-10-17T06:18:52;100423.00;;;20.72;61.57
53671;BME280;39571;48.612;8.088;2022-10-17T06:21:21;100431.09;;;20.69;61.51
53671;BME280;39571;48.612;8.088;2022-10-17T06:23:47;100440.78;;;20.70;61.35
53671;BME280;39571;48.612;8.088;2022-10-17T06:26:12;100435.47;;;20.70;61.59
53671;BME280;39571;48.612;8.088;2022-10-17T06:28:37;100451.44;;;20.70;61.45
53671;BME280;39571;48.612;8.088;2022-10-17T06:31:08;100456.75;;;20.70;61.34
53671;BME280;39571;48.612;8.088;2022-10-17T06:33:34;100461.28;;;20.67;61.49
53671;BME280;39571;48.612;8.088;2022-10-17T06:35:59;100454.91;;;20.72;61.43
53671;BME280;39571;48.612;8.088;2022-10-17T06:38:25;100453.16;;;20.71;61.27
53671;BME280;39571;48.612;8.088;2022-10-17T06:40:50;100457.50;;;20.73;61.44
53671;BME280;39571;48.612;8.088;2022-10-17T06:43:18;100453.91;;;20.74;61.37
53671;BME280;39571;48.612;8.088;2022-10-17T06:45:45;100461.06;;;20.72;61.37
53671;BME280;39571;48.612;8.088;2022-10-17T06:48:10;100449.72;;;20.69;61.38
53671;BME280;39571;48.612;8.088;2022-10-17T06:50:36;100465.69;;;20.69;61.20
53671;BME280;39571;48.612;8.088;2022-10-17T06:53:01;100457.56;;;20.72;61.12
53671;BME280;39571;48.612;8.088;2022-10-17T06:55:26;100467.25;;;20.73;61.30
53671;BME280;39571;48.612;8.088;2022-10-17T06:57:54;100453.16;;;20.71;61.34
53671;BME280;39571;48.612;8.088;2022-10-17T07:00:20;100463.94;;;20.67;61.54
53671;BME280;39571;48.612;8.088;2022-10-17T07:02:47;100470.06;;;20.70;61.32
53671;BME280;39571;48.612;8.088;2022-10-17T07:05:13;100465.56;;;20.72;61.04
53671;BME280;39571;48.612;8.088;2022-10-17T07:07:38;100481.50;;;20.72;61.09
53671;BME280;39571;48.612;8.088;2022-10-17T07:10:03;100477.91;;;20.73;61.28
53671;BME280;39571;48.612;8.088;2022-10-17T07:12:32;100479.59;;;20.75;60.91
53671;BME280;39571;48.612;8.088;2022-10-17T07:14:58;100490.22;;;20.75;61.04
53671;BME280;39571;48.612;8.088;2022-10-17T07:17:23;100489.34;;;20.75;60.99
53671;BME280;39571;48.612;8.088;2022-10-17T07:19:49;100488.53;;;20.73;60.95
53671;BME280;39571;48.612;8.088;2022-10-17T07:22:14;100485.88;;;20.73;61.16
53671;BME280;39571;48.612;8.088;2022-10-17T07:24:39;100481.50;;;20.72;61.16
53671;BME280;39571;48.612;8.088;2022-10-17T07:27:05;100493.72;;;20.76;61.06
53671;BME280;39571;48.612;8.088;2022-10-17T07:29:30;100493.72;;;20.76;61.08
53671;BME280;39571;48.612;8.088;2022-10-17T07:31:55;100507.03;;;20.76;60.94
53671;BME280;39571;48.612;8.088;2022-10-17T07:34:21;100504.50;;;20.73;61.00
53671;BME280;39571;48.612;8.088;2022-10-17T07:36:46;100508.78;;;20.77;60.89
53671;BME280;39571;48.612;8.088;2022-10-17T07:39:11;100500.78;;;20.77;61.12
53671;BME280;39571;48.612;8.088;2022-10-17T07:41:37;100499.03;;;20.76;61.07
53671;BME280;39571;48.612;8.088;2022-10-17T07:44:02;100502.66;;;20.75;61.19
53671;BME280;39571;48.612;8.088;2022-10-17T07:46:28;100509.59;;;20.79;61.02
53671;BME280;39571;48.612;8.088;2022-10-17T07:48:53;100509.59;;;20.79;61.12
53671;BME280;39571;48.612;8.088;2022-10-17T07:51:18;100510.31;;;20.82;60.74
53671;BME280;39571;48.612;8.088;2022-10-17T07:53:44;100519.22;;;20.81;60.72
53671;BME280;39571;48.612;8.088;2022-10-17T07:56:10;100518.22;;;20.84;60.90
53671;BME280;39571;48.612;8.088;2022-10-17T07:58:36;100521.56;;;20.89;60.64
53671;BME280;39571;48.612;8.088;2022-10-17T08:01:04;100519.81;;;20.88;60.63
53671;BME280;39571;48.612;8.088;2022-10-17T08:03:29;100521.69;;;20.86;60.75
53671;BME280;39571;48.612;8.088;2022-10-17T08:05:59;100518.03;;;20.88;60.68
53671;BME280;39571;48.612;8.088;2022-10-17T08:08:25;100528.59;;;20.90;60.74
53671;BME280;39571;48.612;8.088;2022-10-17T08:10:51;100525.00;;;20.91;60.42
53671;BME280;39571;48.612;8.088;2022-10-17T08:13:17;100523.13;;;20.93;60.68
53671;BME280;39571;48.612;8.088;2022-10-17T08:15:42;100530.00;;;20.98;60.40
53671;BME280;39571;48.612;8.088;2022-10-17T08:18:08;100533.25;;;21.05;60.02
53671;BME280;39571;48.612;8.088;2022-10-17T08:20:33;100537.81;;;21.23;59.69
53671;BME280;39571;48.612;8.088;2022-10-17T08:22:59;100540.06;;;21.12;59.89
53671;BME280;39571;48.612;8.088;2022-10-17T08:25:24;100552.56;;;21.10;60.09
53671;BME280;39571;48.612;8.088;2022-10-17T08:27:50;100541.25;;;21.25;59.48
53671;BME280;39571;48.612;8.088;2022-10-17T08:30:16;100537.63;;;21.84;57.72
53671;BME280;39571;48.612;8.088;2022-10-17T08:32:41;100539.72;;;21.58;58.07
53671;BME280;39571;48.612;8.088;2022-10-17T08:35:07;100551.38;;;21.37;59.00
53671;BME280;39571;48.612;8.088;2022-10-17T08:37:32;100549.63;;;21.36;59.21
53671;BME280;39571;48.612;8.088;2022-10-17T08:39:58;100548.72;;;21.37;59.19
53671;BME280;39571;48.612;8.088;2022-10-17T08:42:53;100540.28;;;21.46;59.02
53671;BME280;39571;48.612;8.088;2022-10-17T08:48:08;100558.91;;;23.61;52.94
53671;BME280;39571;48.612;8.088;2022-10-17T08:50:39;100562.66;;;24.06;50.97
53671;BME280;39571;48.612;8.088;2022-10-17T08:53:20;100551.50;;;24.60;49.73
53671;BME280;39571;48.612;8.088;2022-10-17T08:55:48;100562.28;;;24.12;50.58
53671;BME280;39571;48.612;8.088;2022-10-17T08:58:27;100552.06;;;22.89;54.20
53671;BME280;39571;48.612;8.088;2022-10-17T09:12:49;100553.69;;;22.38;56.07
53671;BME280;39571;48.612;8.088;2022-10-17T09:18:11;100557.72;;;22.28;56.39
53671;BME280;39571;48.612;8.088;2022-10-17T09:20:50;100558.34;;;22.16;56.72
53671;BME280;39571;48.612;8.088;2022-10-17T09:23:20;100565.63;;;22.12;56.97
53671;BME280;39571;48.612;8.088;2022-10-17T09:25:53;100563.84;;;22.13;56.93
53671;BME280;39571;48.612;8.088;2022-10-17T09:28:33;100568.28;;;22.12;57.05
53671;BME280;39571;48.612;8.088;2022-10-17T09:31:04;100571.03;;;22.11;57.09
53671;BME280;39571;48.612;8.088;2022-10-17T09:33:37;100576.19;;;22.14;56.95
53671;BME280;39571;48.612;8.088;2022-10-17T09:36:10;100574.19;;;22.19;56.96
53671;BME280;39571;48.612;8.088;2022-10-17T09:38:40;100574.34;;;22.16;56.92
53671;BME280;39571;48.612;8.088;2022-10-17T09:41:12;100570.59;;;22.20;56.78
53671;BME280;39571;48.612;8.088;2022-10-17T09:43:39;100575.94;;;22.20;56.96
53671;BME280;39571;48.612;8.088;2022-10-17T09:46:14;100579.53;;;22.19;56.92
53671;BME280;39571;48.612;8.088;2022-10-17T09:48:45;100584.13;;;22.15;57.08
53671;BME280;39571;48.612;8.088;2022-10-17T09:51:13;100585.00;;;22.16;57.07
53671;BME280;39571;48.612;8.088;2022-10-17T09:53:55;100576.06;;;22.17;57.14
53671;BME280;39571;48.612;8.088;2022-10-17T09:56:21;100585.00;;;22.16;56.97
53671;BME280;39571;48.612;8.088;2022-10-17T09:58:49;100589.31;;;22.19;57.20
53671;BME280;39571;48.612;8.088;2022-10-17T10:01:18;100583.69;;;22.43;56.49
53671;BME280;39571;48.612;8.088;2022-10-17T10:03:44;100589.09;;;22.78;55.34
53671;BME280;39571;48.612;8.088;2022-10-17T10:06:17;100583.31;;;23.87;52.56
53671;BME280;39571;48.612;8.088;2022-10-17T10:08:55;100589.41;;;25.42;48.39
53671;BME280;39571;48.612;8.088;2022-10-17T10:14:11;100580.09;;;24.44;49.81
53671;BME280;39571;48.612;8.088;2022-10-17T10:16:41;100578.19;;;23.34;53.20
53671;BME280;39571;48.612;8.088;2022-10-17T10:19:29;100569.56;;;22.94;54.72
53671;BME280;39571;48.612;8.088;2022-10-17T10:22:04;100571.13;;;22.81;55.04
53671;BME280;39571;48.612;8.088;2022-10-17T10:24:31;100573.53;;;23.37;53.71
53671;BME280;39571;48.612;8.088;2022-10-17T10:27:02;100567.22;;;25.40;48.15
53671;BME280;39571;48.612;8.088;2022-10-17T10:32:16;100564.94;;;27.37;43.37
53671;BME280;39571;48.612;8.088;2022-10-17T10:35:07;100567.00;;;26.00;45.91
53671;BME280;39571;48.612;8.088;2022-10-17T10:37:46;100576.28;;;23.86;51.35
53671;BME280;39571;48.612;8.088;2022-10-17T10:40:23;100569.28;;;23.33;53.40
53671;BME280;39571;48.612;8.088;2022-10-17T10:42:58;100568.06;;;23.06;54.26
53671;BME280;39571;48.612;8.088;2022-10-17T10:45:38;100566.25;;;22.89;54.99
53671;BME280;39571;48.612;8.088;2022-10-17T10:51:13;100567.19;;;22.71;55.54
53671;BME280;39571;48.612;8.088;2022-10-17T10:56:44;100569.44;;;22.61;56.04
53671;BME280;39571;48.612;8.088;2022-10-17T10:59:36;100567.84;;;22.57;56.19
53671;BME280;39571;48.612;8.088;2022-10-17T11:02:12;100568.94;;;22.53;56.04
53671;BME280;39571;48.612;8.088;2022-10-17T11:04:44;100568.13;;;22.51;56.17
53671;BME280;39571;48.612;8.088;2022-10-17T11:07:12;100570.09;;;22.48;56.45
53671;BME280;39571;48.612;8.088;2022-10-17T11:09:57;100576.28;;;22.48;56.36
53671;BME280;39571;48.612;8.088;2022-10-17T11:17:50;100585.41;;;22.44;56.59
53671;BME280;39571;48.612;8.088;2022-10-17T11:25:36;100587.13;;;22.45;56.49
53671;BME280;39571;48.612;8.088;2022-10-17T11:28:09;100589.00;;;22.43;56.70
53671;BME280;39571;48.612;8.088;2022-10-17T11:33:24;100587.63;;;22.53;56.79
53671;BME280;39571;48.612;8.088;2022-10-17T11:35:52;100600.66;;;22.59;56.48
53671;BME280;39571;48.612;8.088;2022-10-17T11:38:26;100601.22;;;22.66;54.98
53671;BME280;39571;48.612;8.088;2022-10-17T11:40:58;100606.84;;;22.79;54.55
53671;BME280;39571;48.612;8.088;2022-10-17T11:43:34;100594.59;;;22.75;54.89
53671;BME280;39571;48.612;8.088;2022-10-17T11:48:40;100600.72;;;22.77;54.82
53671;BME280;39571;48.612;8.088;2022-10-17T11:51:13;100604.09;;;22.80;54.71
53671;BME280;39571;48.612;8.088;2022-10-17T11:54:09;100605.44;;;22.89;53.53
53671;BME280;39571;48.612;8.088;2022-10-17T11:56:42;100599.78;;;22.78;55.04
53671;BME280;39571;48.612;8.088;2022-10-17T12:02:23;100588.44;;;22.73;55.36
53671;BME280;39571;48.612;8.088;2022-10-17T12:04:59;100593.44;;;22.61;55.94
53671;BME280;39571;48.612;8.088;2022-10-17T12:08:19;100591.88;;;22.57;56.15
53671;BME280;39571;48.612;8.088;2022-10-17T12:13:47;100586.59;;;22.56;56.29
53671;BME280;39571;48.612;8.088;2022-10-17T12:18:51;100589.34;;;22.54;56.51
53671;BME280;39571;48.612;8.088;2022-10-17T12:22:04;100586.81;;;22.51;56.83
53671;BME280;39571;48.612;8.088;2022-10-17T12:30:06;100585.88;;;22.52;56.74
53671;BME280;39571;48.612;8.088;2022-10-17T12:35:23;100587.84;;;22.49;57.26
53671;BME280;39571;48.612;8.088;2022-10-17T12:42:59;100585.09;;;22.50;57.17
53671;BME280;39571;48.612;8.088;2022-10-17T12:48:12;100587.94;;;22.47;57.15
53671;BME280;39571;48.612;8.088;2022-10-17T12:53:26;100585.25;;;22.47;57.34
53671;BME280;39571;48.612;8.088;2022-10-17T12:55:59;100580.91;;;22.45;57.48
53671;BME280;39571;48.612;8.088;2022-10-17T12:58:24;100576.28;;;22.48;57.17
53671;BME280;39571;48.612;8.088;2022-10-17T13:00:54;100579.94;;;22.47;57.12
53671;BME280;39571;48.612;8.088;2022-10-17T13:03:27;100582.59;;;22.47;57.54
53671;BME280;39571;48.612;8.088;2022-10-17T13:05:55;100577.41;;;22.44;57.61
53671;BME280;39571;48.612;8.088;2022-10-17T13:08:32;100578.03;;;22.49;57.46
53671;BME280;39571;48.612;8.088;2022-10-17T13:10:58;100575.84;;;22.57;57.35
53671;BME280;39571;48.612;8.088;2022-10-17T13:13:35;100570.69;;;22.54;57.11
53671;BME280;39571;48.612;8.088;2022-10-17T13:16:02;100569.25;;;22.47;57.39
53671;BME280;39571;48.612;8.088;2022-10-17T13:18:28;100569.31;;;22.46;57.52
53671;BME280;39571;48.612;8.088;2022-10-17T13:21:01;100565.63;;;22.48;57.66
53671;BME280;39571;48.612;8.088;2022-10-17T13:23:34;100570.09;;;22.48;57.79
53671;BME280;39571;48.612;8.088;2022-10-17T13:28:34;100559.66;;;22.43;57.88
53671;BME280;39571;48.612;8.088;2022-10-17T13:31:00;100568.59;;;22.42;57.97
53671;BME280;39571;48.612;8.088;2022-10-17T13:33:30;100564.19;;;22.41;57.91
53671;BME280;39571;48.612;8.088;2022-10-17T13:35:56;100571.38;;;22.41;57.83
53671;BME280;39571;48.612;8.088;2022-10-17T13:38:25;100573.00;;;22.43;57.77
53671;BME280;39571;48.612;8.088;2022-10-17T13:40:52;100566.97;;;22.40;58.01
53671;BME280;39571;48.612;8.088;2022-10-17T13:43:19;100564.19;;;22.41;57.86
53671;BME280;39571;48.612;8.088;2022-10-17T13:45:56;100559.00;;;22.38;57.79
53671;BME280;39571;48.612;8.088;2022-10-17T13:48:27;100569.53;;;22.41;57.80
53671;BME280;39571;48.612;8.088;2022-10-17T13:50:56;100563.41;;;22.39;57.84
53671;BME280;39571;48.612;8.088;2022-10-17T13:53:34;100565.22;;;22.39;57.80
53671;BME280;39571;48.612;8.088;2022-10-17T13:56:03;100568.81;;;22.38;57.89
53671;BME280;39571;48.612;8.088;2022-10-17T13:58:44;100571.41;;;22.39;58.00
53671;BME280;39571;48.612;8.088;2022-10-17T14:01:11;100554.63;;;22.37;57.92
53671;BME280;39571;48.612;8.088;2022-10-17T14:03:40;100562.63;;;22.37;57.88
53671;BME280;39571;48.612;8.088;2022-10-17T14:08:52;100560.75;;;22.39;57.87
53671;BME280;39571;48.612;8.088;2022-10-17T14:11:23;100555.56;;;22.36;58.13
53671;BME280;39571;48.612;8.088;2022-10-17T14:13:51;100556.44;;;22.37;57.92
53671;BME280;39571;48.612;8.088;2022-10-17T14:16:18;100560.91;;;22.36;57.97
53671;BME280;39571;48.612;8.088;2022-10-17T14:18:47;100563.56;;;22.36;58.09
53671;BME280;39571;48.612;8.088;2022-10-17T14:21:21;100555.56;;;22.36;58.07
53671;BME280;39571;48.612;8.088;2022-10-17T14:23:48;100564.50;;;22.35;57.85
53671;BME280;39571;48.612;8.088;2022-10-17T14:26:17;100569.84;;;22.35;57.94
53671;BME280;39571;48.612;8.088;2022-10-17T14:28:49;100564.50;;;22.35;58.02
53671;BME280;39571;48.612;8.088;2022-10-17T14:31:34;100568.09;;;22.34;57.92
53671;BME280;39571;48.612;8.088;2022-10-17T14:34:01;100574.41;;;22.33;58.02
53671;BME280;39571;48.612;8.088;2022-10-17T14:36:39;100578.78;;;22.34;58.18
53671;BME280;39571;48.612;8.088;2022-10-17T14:39:14;100577.84;;;22.35;58.21
53671;BME280;39571;48.612;8.088;2022-10-17T14:41:43;100579.72;;;22.33;58.03
53671;BME280;39571;48.612;8.088;2022-10-17T14:44:25;100569.69;;;22.38;58.13
53671;BME280;39571;48.612;8.088;2022-10-17T14:47:02;100577.53;;;22.41;58.18
53671;BME280;39571;48.612;8.088;2022-10-17T14:49:35;100575.53;;;22.46;57.94
53671;BME280;39571;48.612;8.088;2022-10-17T14:54:39;100583.97;;;22.37;58.20
53671;BME280;39571;48.612;8.088;2022-10-17T14:59:41;100584.25;;;22.31;58.56